• Join FlightAware (Why Join?)
  • Login
  • US Flag 
11:55AM EDT


 

Airport Tracker/Info


-or-


 

Live Flight TrackerFlight Track Log ✈ N9791F ✈ 03-Jul-2014 ✈ KHUA - KHUA

Flight Track Log - Related Links

Times and Time Zones

All times are in EDT time to prevent confusion due to time zone crossing. See the N9791F flight status page for this flight to view local times or setup timezone preferences in your user account.

Time Position Orientation Groundspeed Altitude Reporting Facility
EDT Latitude Longitude Course Direction KTS MPH feet Rate Location/Type
10:47AM 34.8814 -86.6089 10° North 82 94 3,100  Level Memphis Center
10:48AM 34.9064 -86.6033 10° North 83 96 3,000 -300 Descending Memphis Center
10:49AM 34.9306 -86.5933 19° North 88 101 2,600 -180 Descending Memphis Center
10:50AM 34.9594 -86.5853 13° North 88 101 2,700 -120 Climbing Memphis Center
10:51AM 34.9861 -86.5800 North 89 102 2,400 -420 Descending Memphis Center
10:52AM 35.0106 -86.5725 14° North 91 105 1,900 -420 Descending Memphis Center
10:53AM 35.0344 -86.5647 15° North 91 105 1,600 240 Descending Memphis Center
10:56AM 35.0536 -86.5550 195° South 88 101 3,100 360 Climbing Memphis Center
10:57AM 35.0850 -86.5464 13° North 87 100 3,200  Climbing Memphis Center
10:58AM 35.1081 -86.5411 11° North 87 100 3,200 -60 Level Memphis Center
10:59AM 35.1194 -86.5617 304° West 103 119 3,100  Descending Memphis Center
11:00AM 35.1014 -86.5397 135° Southeast 118 136 3,200  Climbing Memphis Center
11:01AM 35.0722 -86.5394 180° South 111 128 3,100 -60 Descending Memphis Center
11:03AM 35.0053 -86.5533 196° South 109 125 3,100  Level Memphis Center
11:04AM 34.9769 -86.5739 211° Southwest 113 130 3,100  Level Memphis Center
11:05AM 34.9519 -86.5844 199° South 121 139 3,100  Level Memphis Center
11:06AM 34.9239 -86.5708 158° South 115 132 3,200 -60 Climbing Memphis Center
11:11AM 34.9444 -86.5689 198° South 110 127 3,000  Descending Memphis Center
11:13AM 34.9508 -86.5956 286° West 100 115 3,200 60 Climbing Memphis Center
11:14AM 34.9489 -86.5728 96° East 104 120 3,200  Level Memphis Center
11:17AM 34.9044 -86.4864 39° Northeast 106 122 3,200 -60 Level Memphis Center
11:18AM 34.8775 -86.4694 153° Southeast 111 128 3,100 -60 Descending Memphis Center
11:19AM 34.8536 -86.4519 149° Southeast 110 127 3,100  Level Memphis Center
11:20AM 34.8294 -86.4325 147° Southeast 107 123 3,200  Climbing Memphis Center
11:23AM 34.8406 -86.5056 239° Southwest 105 121 3,200  Level Memphis Center
11:24AM 34.8553 -86.5369 300° West 105 121 3,200 -60 Level Memphis Center
11:25AM 34.8694 -86.5661 301° West 105 121 3,100 -60 Descending Memphis Center
11:26AM 34.8753 -86.6039 281° West 109 125 3,100  Level Memphis Center
11:27AM 34.8789 -86.6392 277° West 109 125 3,200  Climbing Memphis Center
11:29AM 34.8617 -86.7119 191° South 107 123 3,100  Descending Memphis Center
11:31AM 34.8236 -86.7281 41° Northeast 115 132 3,200 -120 Climbing Memphis Center
11:32AM 34.7975 -86.7114 152° Southeast 112 129 2,800 -600 Descending Memphis Center
11:34AM 34.7289 -86.6972 231° Southwest 112 129 1,500 -600 Descending Memphis Center
11:35AM 34.7017 -86.6908 169° South 110 127 1,000  Descending Memphis Center
11:36AM 34.6858 -86.6700 133° Southeast 100 115 1,500 240 Climbing Memphis Center
11:37AM 34.6603 -86.6661 173° South 98 113 1,500  Level Memphis Center
11:41AM 34.6786 -86.6848 231° Southwest  Level Estimated